createdAt,value
2022-10-01T00:02:57.732Z,108.70588
2022-10-01T00:07:58.693Z,109.14745
2022-10-01T00:12:59.746Z,109.5914
2022-10-01T00:18:00.726Z,109.5914
2022-10-01T00:23:01.645Z,109.5914
2022-10-01T00:28:02.708Z,109.5914
2022-10-01T00:33:03.694Z,110.03774
2022-10-01T00:38:04.699Z,110.48649
2022-10-01T00:43:05.656Z,110.48649
2022-10-01T00:48:06.604Z,110.03774
2022-10-01T00:53:07.605Z,110.03774
2022-10-01T00:58:08.606Z,110.03774
2022-10-01T01:03:09.627Z,110.03774
2022-10-01T01:08:10.575Z,110.03774
2022-10-01T01:13:11.596Z,110.03774
2022-10-01T01:18:12.566Z,110.48649
2022-10-01T01:23:13.495Z,110.93767
2022-10-01T01:28:14.478Z,110.48649
2022-10-01T01:33:15.500Z,110.48649
2022-10-01T01:38:16.833Z,110.03774
2022-10-01T01:43:17.791Z,110.03774
2022-10-01T01:48:18.742Z,110.48649
2022-10-01T01:53:19.682Z,110.48649
2022-10-01T01:58:20.616Z,110.03774
2022-10-01T02:03:21.555Z,110.48649
2022-10-01T02:08:22.520Z,110.48649
2022-10-01T02:13:23.443Z,110.48649
2022-10-01T02:18:24.377Z,110.93767
2022-10-01T02:23:25.401Z,111.3913
2022-10-01T02:28:26.471Z,111.3913
2022-10-01T02:33:27.489Z,111.3913
2022-10-01T02:38:28.601Z,111.3913
2022-10-01T02:43:29.512Z,111.84741
2022-10-01T02:48:30.496Z,111.84741
2022-10-01T02:53:31.440Z,112.30601
2022-10-01T02:58:32.320Z,112.30601
2022-10-01T03:03:33.199Z,112.30601
2022-10-01T03:08:34.159Z,112.30601
2022-10-01T03:13:35.117Z,112.76712
2022-10-01T03:18:36.023Z,113.23077
2022-10-01T03:23:37.051Z,113.23077
2022-10-01T03:28:37.991Z,112.76712
2022-10-01T03:33:38.908Z,112.76712
2022-10-01T03:38:39.817Z,112.76712
2022-10-01T03:43:40.742Z,112.30601
2022-10-01T03:48:41.747Z,112.30601
2022-10-01T03:53:42.733Z,112.76712
2022-10-01T03:58:43.656Z,112.76712
2022-10-01T04:03:44.570Z,112.76712
2022-10-01T04:08:45.488Z,112.76712
2022-10-01T04:13:46.550Z,113.23077
2022-10-01T04:18:47.541Z,113.23077
2022-10-01T04:23:48.872Z,112.76712
2022-10-01T04:28:50.105Z,112.76712
2022-10-01T04:33:51.044Z,112.76712
2022-10-01T04:38:51.977Z,111.3913
2022-10-01T04:43:52.914Z,112.30601
2022-10-01T04:48:53.896Z,112.30601
2022-10-01T04:53:55.096Z,112.30601
2022-10-01T04:58:55.997Z,112.76712
2022-10-01T05:03:56.897Z,112.76712
2022-10-01T05:08:57.914Z,112.76712
2022-10-01T05:13:58.845Z,112.76712
2022-10-01T05:18:59.806Z,112.30601
2022-10-01T05:24:00.761Z,112.30601
2022-10-01T05:29:01.838Z,112.76712
2022-10-01T05:34:02.759Z,113.23077
2022-10-01T05:39:03.686Z,112.30601
2022-10-01T05:44:04.853Z,112.30601
2022-10-01T05:49:05.894Z,111.84741
2022-10-01T05:54:06.849Z,112.76712
2022-10-01T05:59:07.794Z,112.30601
2022-10-01T06:04:08.719Z,111.84741
2022-10-01T06:09:09.632Z,111.3913
2022-10-01T06:14:10.574Z,110.48649
2022-10-01T06:19:11.552Z,109.5914
2022-10-01T06:24:12.885Z,109.14745
2022-10-01T06:29:13.808Z,109.14745
2022-10-01T06:34:14.863Z,109.5914
2022-10-01T06:39:15.919Z,109.14745
2022-10-01T06:44:16.828Z,109.5914
2022-10-01T06:49:17.839Z,109.5914
2022-10-01T06:54:18.825Z,110.48649
2022-10-01T06:59:19.742Z,110.48649
2022-10-01T07:04:20.678Z,110.48649
2022-10-01T07:09:21.642Z,110.03774
2022-10-01T07:14:22.701Z,109.5914
2022-10-01T07:19:23.655Z,109.5914
2022-10-01T07:24:24.616Z,110.03774
2022-10-01T07:29:25.561Z,110.03774
2022-10-01T07:34:26.461Z,109.5914
2022-10-01T07:39:27.377Z,110.03774
2022-10-01T07:44:28.309Z,110.93767
2022-10-01T07:49:29.234Z,110.03774
2022-10-01T07:54:30.151Z,109.14745
2022-10-01T07:59:31.053Z,107.82979
2022-10-01T08:04:32.045Z,107.82979
2022-10-01T08:09:32.958Z,107.39523
2022-10-01T08:14:33.882Z,107.39523
2022-10-01T08:19:34.849Z,106.96296
2022-10-01T08:24:35.885Z,106.96296
2022-10-01T08:29:36.869Z,106.96296
2022-10-01T08:34:37.819Z,108.26667
2022-10-01T08:39:38.818Z,109.14745
2022-10-01T08:44:39.827Z,109.5914
2022-10-01T08:49:40.756Z,108.26667
2022-10-01T08:54:41.701Z,107.82979
2022-10-01T08:59:42.657Z,106.53298
2022-10-01T09:04:43.622Z,106.10526
2022-10-01T09:09:44.587Z,107.39523
2022-10-01T09:14:45.541Z,107.82979
2022-10-01T09:19:47.978Z,107.39523
2022-10-01T09:24:49.487Z,107.82979
2022-10-01T09:29:50.694Z,109.14745
2022-10-01T09:34:51.616Z,108.26667
2022-10-01T09:39:52.561Z,111.84741
2022-10-01T09:44:53.530Z,114.63712
2022-10-01T09:49:54.501Z,120.0
2022-10-01T09:54:55.436Z,117.52113
2022-10-01T09:59:56.356Z,118.0113
2022-10-01T10:04:57.361Z,119.0
2022-10-01T10:09:58.318Z,118.0113
2022-10-01T10:14:59.236Z,115.58774
2022-10-01T10:20:00.195Z,114.63712
2022-10-01T10:25:01.254Z,114.63712
2022-10-01T10:30:02.397Z,114.63712
2022-10-01T10:35:03.683Z,113.23077
2022-10-01T10:40:04.728Z,112.76712
2022-10-01T10:45:05.656Z,112.76712
2022-10-01T10:50:06.583Z,111.3913
2022-10-01T10:55:07.576Z,108.26667
2022-10-01T11:00:08.529Z,107.39523
2022-10-01T11:05:09.467Z,108.26667
2022-10-01T11:10:10.392Z,108.70588
2022-10-01T11:15:11.331Z,110.48649
2022-10-01T11:20:12.362Z,109.5914
2022-10-01T11:25:13.322Z,108.70588
2022-10-01T11:30:14.257Z,111.3913
2022-10-01T11:35:15.323Z,111.84741
2022-10-01T11:40:16.264Z,112.30601
2022-10-01T11:45:17.219Z,110.93767
2022-10-01T11:50:18.137Z,110.93767
2022-10-01T11:55:19.142Z,110.48649
2022-10-01T12:00:24.020Z,111.3913
2022-10-01T12:05:27.720Z,109.5914
2022-10-01T12:10:28.682Z,108.70588
2022-10-01T12:15:29.591Z,108.70588
2022-10-01T12:20:30.685Z,111.84741
2022-10-01T12:25:31.664Z,111.84741
2022-10-01T12:30:32.581Z,110.93767
2022-10-01T12:35:33.518Z,111.3913
2022-10-01T12:40:34.514Z,110.03774
2022-10-01T12:45:35.451Z,109.14745
2022-10-01T12:50:36.413Z,108.70588
2022-10-01T12:55:37.406Z,106.96296
2022-10-01T13:00:38.454Z,107.82979
2022-10-01T13:05:39.403Z,105.67979
2022-10-01T13:10:40.354Z,106.10526
2022-10-01T13:15:41.267Z,106.10526
2022-10-01T13:20:42.214Z,104.83551
2022-10-01T13:25:43.187Z,104.83551
2022-10-01T13:30:44.111Z,105.67979
2022-10-01T13:35:45.013Z,106.10526
2022-10-01T13:40:45.915Z,105.25654
2022-10-01T13:45:46.822Z,105.25654
2022-10-01T13:50:47.785Z,107.39523
2022-10-01T13:55:48.694Z,106.53298
2022-10-01T14:00:49.792Z,106.10526
2022-10-01T14:05:50.767Z,105.67979
2022-10-01T14:10:51.676Z,104.83551
2022-10-01T14:15:52.638Z,106.53298
2022-10-01T14:20:53.650Z,106.10526
2022-10-01T14:25:54.557Z,104.83551
2022-10-01T14:30:55.542Z,104.83551
2022-10-01T14:35:56.500Z,104.41667
2022-10-01T14:40:57.430Z,104.0
2022-10-01T14:45:58.449Z,103.58549
2022-10-01T14:50:59.396Z,105.25654
2022-10-01T14:56:00.335Z,104.0
2022-10-01T15:01:01.492Z,102.35476
2022-10-01T15:06:02.497Z,101.94872
2022-10-01T15:11:03.446Z,101.14286
2022-10-01T15:16:04.402Z,101.94872
2022-10-01T15:21:05.465Z,101.14286
2022-10-01T15:26:06.426Z,102.35476
2022-10-01T15:31:07.485Z,102.35476
2022-10-01T15:36:08.468Z,101.94872
2022-10-01T15:41:30.490Z,102.35476
2022-10-01T15:46:33.602Z,102.76289
2022-10-01T15:51:34.909Z,102.76289
2022-10-01T15:56:36.206Z,101.94872
2022-10-01T16:01:37.352Z,101.54476
2022-10-01T16:06:38.347Z,101.94872
2022-10-01T16:11:39.312Z,103.17313
2022-10-01T16:16:40.285Z,101.94872
2022-10-01T16:21:41.236Z,101.54476
2022-10-01T16:26:42.235Z,101.54476
2022-10-01T16:31:43.279Z,101.14286
2022-10-01T16:36:44.289Z,101.14286
2022-10-01T16:41:45.287Z,101.14286
2022-10-01T16:46:46.192Z,101.54476
2022-10-01T16:51:47.128Z,100.743
2022-10-01T16:56:48.100Z,100.743
2022-10-01T17:01:49.092Z,100.34518
2022-10-01T17:06:50.484Z,100.34518
2022-10-01T17:11:51.435Z,100.34518
2022-10-01T17:16:52.396Z,100.34518
2022-10-01T17:21:53.419Z,99.16373
2022-10-01T17:26:54.357Z,98.77387
2022-10-01T17:31:55.341Z,98.77387
2022-10-01T17:36:56.346Z,98.77387
2022-10-01T17:41:57.269Z,98.77387
2022-10-01T17:46:58.190Z,98.77387
2022-10-01T17:51:59.162Z,99.16373
2022-10-01T17:57:00.183Z,99.16373
2022-10-01T18:02:01.207Z,99.16373
2022-10-01T18:07:02.552Z,98.77387
2022-10-01T18:12:03.530Z,99.16373
2022-10-01T18:17:04.470Z,99.94937
2022-10-01T18:22:13.366Z,100.34518
2022-10-01T18:27:15.052Z,100.34518
2022-10-01T18:32:17.750Z,101.54476
2022-10-01T18:37:19.827Z,102.76289
2022-10-01T18:42:20.744Z,103.17313
2022-10-01T18:47:21.675Z,102.76289
2022-10-01T18:52:22.651Z,104.0
2022-10-01T18:57:23.668Z,104.83551
2022-10-01T19:02:24.579Z,103.58549
2022-10-01T19:07:25.530Z,104.41667
2022-10-01T19:12:26.589Z,105.25654
2022-10-01T19:17:27.535Z,105.67979
2022-10-01T19:22:28.496Z,104.83551
2022-10-01T19:27:29.556Z,105.67979
2022-10-01T19:32:30.532Z,105.25654
2022-10-01T19:37:31.468Z,104.41667
2022-10-01T19:42:32.424Z,106.10526
2022-10-01T19:47:33.377Z,108.70588
2022-10-01T19:52:34.313Z,109.5914
2022-10-01T19:57:35.498Z,106.96296
2022-10-01T20:02:36.507Z,108.26667
2022-10-01T20:07:37.566Z,107.39523
2022-10-01T20:12:38.501Z,106.96296
2022-10-01T20:17:39.475Z,106.96296
2022-10-01T20:22:40.372Z,106.96296
2022-10-01T20:27:44.655Z,106.10526
2022-10-01T20:32:48.108Z,106.53298
2022-10-01T20:37:49.035Z,106.10526
2022-10-01T20:42:49.984Z,105.67979
2022-10-01T20:47:51.152Z,107.39523
2022-10-01T20:52:52.387Z,108.70588
2022-10-01T20:57:53.402Z,110.93767
2022-10-01T21:02:54.391Z,110.48649
2022-10-01T21:07:55.311Z,108.70588
2022-10-01T21:12:56.242Z,109.5914
2022-10-01T21:17:57.153Z,109.14745
2022-10-01T21:22:58.063Z,108.26667
2022-10-01T21:27:59.289Z,107.82979
2022-10-01T21:33:02.536Z,109.5914
2022-10-01T21:38:03.794Z,109.14745
2022-10-01T21:43:04.736Z,108.70588
2022-10-01T21:48:05.657Z,108.70588
2022-10-01T21:53:06.607Z,107.39523
2022-10-01T21:58:07.557Z,107.39523
2022-10-01T22:03:08.498Z,106.53298
2022-10-01T22:08:09.444Z,107.39523
2022-10-01T22:13:10.352Z,106.96296
2022-10-01T22:18:11.371Z,107.39523
2022-10-01T22:23:12.303Z,107.82979
2022-10-01T22:28:13.367Z,108.70588
2022-10-01T22:33:14.319Z,109.14745
2022-10-01T22:38:15.246Z,109.14745
2022-10-01T22:43:16.289Z,110.03774
2022-10-01T22:48:17.212Z,109.5914
2022-10-01T22:53:18.223Z,110.93767
2022-10-01T22:58:19.145Z,111.3913
2022-10-01T23:03:20.042Z,110.93767
2022-10-01T23:08:21.044Z,110.03774
2022-10-01T23:13:22.076Z,109.5914
2022-10-01T23:18:23.071Z,109.14745
2022-10-01T23:23:24.030Z,109.5914
2022-10-01T23:28:24.995Z,109.5914
2022-10-01T23:33:26.102Z,110.03774
2022-10-01T23:38:27.026Z,109.14745
2022-10-01T23:43:27.951Z,110.48649
2022-10-01T23:48:28.994Z,110.48649
2022-10-01T23:53:29.948Z,110.03774
2022-10-01T23:58:30.909Z,110.03774
